sensor_id;sensor_type;location;lat;lon;timestamp;P1;durP1;ratioP1;P2;durP2;ratioP2
5217;SDS011;26539;51.064;6.346;2024-02-15T00:02:14;11.53;;;7.60;;
5217;SDS011;26539;51.064;6.346;2024-02-15T00:04:40;13.40;;;7.43;;
5217;SDS011;26539;51.064;6.346;2024-02-15T00:07:06;10.40;;;7.10;;
5217;SDS011;26539;51.064;6.346;2024-02-15T00:09:31;17.60;;;8.63;;
5217;SDS011;26539;51.064;6.346;2024-02-15T00:11:57;13.33;;;6.53;;
5217;SDS011;26539;51.064;6.346;2024-02-15T00:14:24;13.10;;;5.90;;
5217;SDS011;26539;51.064;6.346;2024-02-15T00:16:50;17.43;;;6.40;;
5217;SDS011;26539;51.064;6.346;2024-02-15T00:19:16;8.43;;;5.67;;
5217;SDS011;26539;51.064;6.346;2024-02-15T00:21:45;11.93;;;6.17;;
5217;SDS011;26539;51.064;6.346;2024-02-15T00:24:11;10.03;;;5.80;;
5217;SDS011;26539;51.064;6.346;2024-02-15T00:26:36;9.27;;;5.43;;
5217;SDS011;26539;51.064;6.346;2024-02-15T00:29:02;17.10;;;6.93;;
5217;SDS011;26539;51.064;6.346;2024-02-15T00:31:28;11.77;;;6.70;;
5217;SDS011;26539;51.064;6.346;2024-02-15T00:33:54;13.13;;;6.53;;
5217;SDS011;26539;51.064;6.346;2024-02-15T00:36:20;12.70;;;6.00;;
5217;SDS011;26539;51.064;6.346;2024-02-15T00:38:45;14.73;;;5.90;;
5217;SDS011;26539;51.064;6.346;2024-02-15T00:41:11;19.77;;;6.23;;
5217;SDS011;26539;51.064;6.346;2024-02-15T00:43:37;10.17;;;6.20;;
5217;SDS011;26539;51.064;6.346;2024-02-15T00:46:03;10.43;;;6.27;;
5217;SDS011;26539;51.064;6.346;2024-02-15T00:48:28;11.73;;;6.60;;
5217;SDS011;26539;51.064;6.346;2024-02-15T00:50:55;10.30;;;5.73;;
5217;SDS011;26539;51.064;6.346;2024-02-15T00:53:21;11.83;;;6.13;;
5217;SDS011;26539;51.064;6.346;2024-02-15T00:55:46;18.03;;;5.77;;
5217;SDS011;26539;51.064;6.346;2024-02-15T00:58:12;19.10;;;6.40;;
5217;SDS011;26539;51.064;6.346;2024-02-15T01:00:37;12.80;;;6.20;;
5217;SDS011;26539;51.064;6.346;2024-02-15T01:03:03;11.93;;;5.10;;
5217;SDS011;26539;51.064;6.346;2024-02-15T01:05:29;10.90;;;5.30;;
5217;SDS011;26539;51.064;6.346;2024-02-15T01:07:55;10.97;;;5.43;;
5217;SDS011;26539;51.064;6.346;2024-02-15T01:10:21;14.70;;;5.30;;
5217;SDS011;26539;51.064;6.346;2024-02-15T01:12:49;9.00;;;4.90;;
5217;SDS011;26539;51.064;6.346;2024-02-15T01:15:14;9.07;;;5.20;;
5217;SDS011;26539;51.064;6.346;2024-02-15T01:17:43;10.90;;;5.50;;
5217;SDS011;26539;51.064;6.346;2024-02-15T01:20:09;16.20;;;5.40;;
5217;SDS011;26539;51.064;6.346;2024-02-15T01:22:35;12.07;;;5.60;;
5217;SDS011;26539;51.064;6.346;2024-02-15T01:25:01;10.17;;;5.90;;
5217;SDS011;26539;51.064;6.346;2024-02-15T01:27:27;9.87;;;4.80;;
5217;SDS011;26539;51.064;6.346;2024-02-15T01:29:56;7.43;;;4.80;;
5217;SDS011;26539;51.064;6.346;2024-02-15T01:32:21;22.67;;;6.00;;
5217;SDS011;26539;51.064;6.346;2024-02-15T01:34:47;9.17;;;4.90;;
5217;SDS011;26539;51.064;6.346;2024-02-15T01:37:13;9.20;;;5.80;;
5217;SDS011;26539;51.064;6.346;2024-02-15T01:39:38;13.93;;;5.17;;
5217;SDS011;26539;51.064;6.346;2024-02-15T01:42:05;11.70;;;5.90;;
5217;SDS011;26539;51.064;6.346;2024-02-15T01:44:31;11.40;;;5.23;;
5217;SDS011;26539;51.064;6.346;2024-02-15T01:46:56;9.77;;;5.57;;
5217;SDS011;26539;51.064;6.346;2024-02-15T01:49:23;14.37;;;4.83;;
5217;SDS011;26539;51.064;6.346;2024-02-15T01:51:52;10.00;;;5.80;;
5217;SDS011;26539;51.064;6.346;2024-02-15T01:54:21;10.97;;;5.07;;
5217;SDS011;26539;51.064;6.346;2024-02-15T01:56:48;9.67;;;5.07;;
5217;SDS011;26539;51.064;6.346;2024-02-15T01:59:17;9.17;;;5.73;;
5217;SDS011;26539;51.064;6.346;2024-02-15T02:01:44;9.60;;;5.00;;
5217;SDS011;26539;51.064;6.346;2024-02-15T02:04:10;10.10;;;5.00;;
5217;SDS011;26539;51.064;6.346;2024-02-15T02:06:36;9.50;;;5.27;;
5217;SDS011;26539;51.064;6.346;2024-02-15T02:09:02;9.00;;;5.07;;
5217;SDS011;26539;51.064;6.346;2024-02-15T02:11:28;7.50;;;4.50;;
5217;SDS011;26539;51.064;6.346;2024-02-15T02:13:54;12.00;;;4.67;;
5217;SDS011;26539;51.064;6.346;2024-02-15T02:16:27;11.40;;;4.23;;
5217;SDS011;26539;51.064;6.346;2024-02-15T02:19:00;10.63;;;4.50;;
5217;SDS011;26539;51.064;6.346;2024-02-15T02:21:27;8.07;;;4.47;;
5217;SDS011;26539;51.064;6.346;2024-02-15T02:23:55;15.30;;;4.17;;
5217;SDS011;26539;51.064;6.346;2024-02-15T02:26:23;12.03;;;4.63;;
5217;SDS011;26539;51.064;6.346;2024-02-15T02:28:49;10.47;;;4.23;;
5217;SDS011;26539;51.064;6.346;2024-02-15T02:31:18;15.57;;;4.33;;
5217;SDS011;26539;51.064;6.346;2024-02-15T02:33:47;10.47;;;4.37;;
5217;SDS011;26539;51.064;6.346;2024-02-15T02:36:17;6.27;;;3.33;;
5217;SDS011;26539;51.064;6.346;2024-02-15T02:38:43;8.43;;;3.90;;
5217;SDS011;26539;51.064;6.346;2024-02-15T02:41:10;9.10;;;3.87;;
5217;SDS011;26539;51.064;6.346;2024-02-15T02:43:36;13.00;;;4.33;;
5217;SDS011;26539;51.064;6.346;2024-02-15T02:46:02;5.13;;;3.63;;
5217;SDS011;26539;51.064;6.346;2024-02-15T02:48:30;6.17;;;3.27;;
5217;SDS011;26539;51.064;6.346;2024-02-15T02:50:56;8.83;;;3.50;;
5217;SDS011;26539;51.064;6.346;2024-02-15T02:53:22;5.87;;;3.27;;
5217;SDS011;26539;51.064;6.346;2024-02-15T02:55:49;8.83;;;2.93;;
5217;SDS011;26539;51.064;6.346;2024-02-15T02:58:14;7.90;;;2.80;;
5217;SDS011;26539;51.064;6.346;2024-02-15T03:00:40;3.83;;;2.53;;
5217;SDS011;26539;51.064;6.346;2024-02-15T03:03:06;8.17;;;3.00;;
5217;SDS011;26539;51.064;6.346;2024-02-15T03:05:31;5.80;;;3.17;;
5217;SDS011;26539;51.064;6.346;2024-02-15T03:07:57;7.83;;;3.20;;
5217;SDS011;26539;51.064;6.346;2024-02-15T03:10:22;15.13;;;3.17;;
5217;SDS011;26539;51.064;6.346;2024-02-15T03:12:49;5.30;;;2.63;;
5217;SDS011;26539;51.064;6.346;2024-02-15T03:15:15;8.13;;;3.20;;
5217;SDS011;26539;51.064;6.346;2024-02-15T03:17:42;8.80;;;2.73;;
5217;SDS011;26539;51.064;6.346;2024-02-15T03:20:09;4.40;;;2.40;;
5217;SDS011;26539;51.064;6.346;2024-02-15T03:22:37;6.20;;;2.97;;
5217;SDS011;26539;51.064;6.346;2024-02-15T03:25:04;8.70;;;2.50;;
5217;SDS011;26539;51.064;6.346;2024-02-15T03:27:33;6.70;;;2.70;;
5217;SDS011;26539;51.064;6.346;2024-02-15T03:30:01;5.60;;;2.60;;
5217;SDS011;26539;51.064;6.346;2024-02-15T03:32:27;6.10;;;2.33;;
5217;SDS011;26539;51.064;6.346;2024-02-15T03:34:52;8.00;;;2.43;;
5217;SDS011;26539;51.064;6.346;2024-02-15T03:37:19;8.53;;;3.00;;
5217;SDS011;26539;51.064;6.346;2024-02-15T03:39:45;5.23;;;2.20;;
5217;SDS011;26539;51.064;6.346;2024-02-15T03:42:11;8.20;;;2.40;;
5217;SDS011;26539;51.064;6.346;2024-02-15T03:44:37;9.60;;;3.00;;
5217;SDS011;26539;51.064;6.346;2024-02-15T03:47:03;11.50;;;2.30;;
5217;SDS011;26539;51.064;6.346;2024-02-15T03:49:30;5.30;;;2.57;;
5217;SDS011;26539;51.064;6.346;2024-02-15T03:51:56;12.07;;;2.50;;
5217;SDS011;26539;51.064;6.346;2024-02-15T03:54:24;5.93;;;2.27;;
5217;SDS011;26539;51.064;6.346;2024-02-15T03:56:50;8.73;;;2.40;;
5217;SDS011;26539;51.064;6.346;2024-02-15T03:59:19;5.30;;;2.30;;
5217;SDS011;26539;51.064;6.346;2024-02-15T04:01:55;6.97;;;2.17;;
5217;SDS011;26539;51.064;6.346;2024-02-15T04:04:21;3.83;;;1.73;;
5217;SDS011;26539;51.064;6.346;2024-02-15T04:06:50;6.63;;;2.10;;
5217;SDS011;26539;51.064;6.346;2024-02-15T04:09:17;5.70;;;1.90;;
5217;SDS011;26539;51.064;6.346;2024-02-15T04:11:43;7.80;;;2.43;;
5217;SDS011;26539;51.064;6.346;2024-02-15T04:14:12;10.37;;;3.27;;
5217;SDS011;26539;51.064;6.346;2024-02-15T04:16:37;8.40;;;4.03;;
5217;SDS011;26539;51.064;6.346;2024-02-15T04:19:03;6.20;;;2.10;;
5217;SDS011;26539;51.064;6.346;2024-02-15T04:21:29;4.83;;;2.47;;
5217;SDS011;26539;51.064;6.346;2024-02-15T04:23:55;4.77;;;2.03;;
5217;SDS011;26539;51.064;6.346;2024-02-15T04:26:21;5.20;;;2.27;;
5217;SDS011;26539;51.064;6.346;2024-02-15T04:28:51;6.30;;;2.27;;
5217;SDS011;26539;51.064;6.346;2024-02-15T04:31:18;6.80;;;2.67;;
5217;SDS011;26539;51.064;6.346;2024-02-15T04:33:43;9.23;;;3.77;;
5217;SDS011;26539;51.064;6.346;2024-02-15T04:36:09;4.20;;;2.40;;
5217;SDS011;26539;51.064;6.346;2024-02-15T04:38:34;8.13;;;3.37;;
5217;SDS011;26539;51.064;6.346;2024-02-15T04:41:03;6.33;;;2.17;;
5217;SDS011;26539;51.064;6.346;2024-02-15T04:43:30;9.43;;;2.97;;
5217;SDS011;26539;51.064;6.346;2024-02-15T04:45:58;5.07;;;2.43;;
5217;SDS011;26539;51.064;6.346;2024-02-15T04:48:24;3.30;;;1.90;;
5217;SDS011;26539;51.064;6.346;2024-02-15T04:50:50;23.30;;;10.83;;
5217;SDS011;26539;51.064;6.346;2024-02-15T04:53:17;6.07;;;2.20;;
5217;SDS011;26539;51.064;6.346;2024-02-15T04:55:42;6.80;;;3.30;;
5217;SDS011;26539;51.064;6.346;2024-02-15T04:58:08;13.87;;;3.57;;
5217;SDS011;26539;51.064;6.346;2024-02-15T05:00:35;5.20;;;2.73;;
5217;SDS011;26539;51.064;6.346;2024-02-15T05:03:01;7.53;;;3.07;;
5217;SDS011;26539;51.064;6.346;2024-02-15T05:05:27;14.70;;;4.50;;
5217;SDS011;26539;51.064;6.346;2024-02-15T05:07:54;8.20;;;4.23;;
5217;SDS011;26539;51.064;6.346;2024-02-15T05:10:20;15.70;;;6.50;;
5217;SDS011;26539;51.064;6.346;2024-02-15T05:12:45;16.50;;;4.60;;
5217;SDS011;26539;51.064;6.346;2024-02-15T05:15:14;8.67;;;4.27;;
5217;SDS011;26539;51.064;6.346;2024-02-15T05:17:42;7.10;;;3.37;;
5217;SDS011;26539;51.064;6.346;2024-02-15T05:20:08;4.90;;;2.70;;
5217;SDS011;26539;51.064;6.346;2024-02-15T05:22:38;9.13;;;2.57;;
5217;SDS011;26539;51.064;6.346;2024-02-15T05:25:05;8.23;;;2.80;;
5217;SDS011;26539;51.064;6.346;2024-02-15T05:27:32;10.73;;;2.37;;
5217;SDS011;26539;51.064;6.346;2024-02-15T05:29:58;10.03;;;3.40;;
5217;SDS011;26539;51.064;6.346;2024-02-15T05:32:24;5.90;;;2.80;;
5217;SDS011;26539;51.064;6.346;2024-02-15T05:34:51;9.97;;;3.53;;
5217;SDS011;26539;51.064;6.346;2024-02-15T05:37:16;15.03;;;3.30;;
5217;SDS011;26539;51.064;6.346;2024-02-15T05:39:42;10.60;;;5.90;;
5217;SDS011;26539;51.064;6.346;2024-02-15T05:42:08;7.27;;;4.07;;
5217;SDS011;26539;51.064;6.346;2024-02-15T05:44:35;27.33;;;9.90;;
5217;SDS011;26539;51.064;6.346;2024-02-15T05:47:01;21.33;;;7.90;;
5217;SDS011;26539;51.064;6.346;2024-02-15T05:49:26;43.80;;;17.27;;
5217;SDS011;26539;51.064;6.346;2024-02-15T05:51:52;8.20;;;4.93;;
5217;SDS011;26539;51.064;6.346;2024-02-15T05:54:18;5.30;;;2.17;;
5217;SDS011;26539;51.064;6.346;2024-02-15T05:56:44;4.97;;;2.30;;
5217;SDS011;26539;51.064;6.346;2024-02-15T05:59:10;3.97;;;1.90;;
5217;SDS011;26539;51.064;6.346;2024-02-15T06:01:39;13.67;;;5.03;;
5217;SDS011;26539;51.064;6.346;2024-02-15T06:04:06;7.47;;;3.07;;
5217;SDS011;26539;51.064;6.346;2024-02-15T06:06:34;6.17;;;2.97;;
5217;SDS011;26539;51.064;6.346;2024-02-15T06:08:59;10.33;;;5.10;;
5217;SDS011;26539;51.064;6.346;2024-02-15T06:11:26;11.27;;;4.27;;
5217;SDS011;26539;51.064;6.346;2024-02-15T06:13:52;9.80;;;3.13;;
5217;SDS011;26539;51.064;6.346;2024-02-15T06:16:18;10.93;;;5.50;;
5217;SDS011;26539;51.064;6.346;2024-02-15T06:18:43;14.27;;;6.80;;
5217;SDS011;26539;51.064;6.346;2024-02-15T06:21:09;16.07;;;7.53;;
5217;SDS011;26539;51.064;6.346;2024-02-15T06:23:34;31.83;;;13.00;;
5217;SDS011;26539;51.064;6.346;2024-02-15T06:26:00;7.27;;;4.30;;
5217;SDS011;26539;51.064;6.346;2024-02-15T06:28:27;7.67;;;2.80;;
5217;SDS011;26539;51.064;6.346;2024-02-15T06:31:13;11.73;;;4.20;;
5217;SDS011;26539;51.064;6.346;2024-02-15T06:33:57;8.67;;;3.57;;
5217;SDS011;26539;51.064;6.346;2024-02-15T06:36:45;9.47;;;3.10;;
5217;SDS011;26539;51.064;6.346;2024-02-15T06:39:31;19.43;;;7.97;;
5217;SDS011;26539;51.064;6.346;2024-02-15T06:42:03;14.37;;;7.00;;
5217;SDS011;26539;51.064;6.346;2024-02-15T06:44:29;9.50;;;3.67;;
5217;SDS011;26539;51.064;6.346;2024-02-15T06:46:55;12.57;;;4.80;;
5217;SDS011;26539;51.064;6.346;2024-02-15T06:49:21;9.77;;;2.60;;
5217;SDS011;26539;51.064;6.346;2024-02-15T06:51:49;18.10;;;7.67;;
5217;SDS011;26539;51.064;6.346;2024-02-15T06:54:15;10.37;;;5.10;;
5217;SDS011;26539;51.064;6.346;2024-02-15T06:56:43;7.50;;;4.40;;
5217;SDS011;26539;51.064;6.346;2024-02-15T06:59:11;12.23;;;3.70;;
5217;SDS011;26539;51.064;6.346;2024-02-15T07:01:40;13.30;;;4.63;;
5217;SDS011;26539;51.064;6.346;2024-02-15T07:04:06;6.50;;;2.80;;
5217;SDS011;26539;51.064;6.346;2024-02-15T07:06:33;14.70;;;6.20;;
5217;SDS011;26539;51.064;6.346;2024-02-15T07:09:00;20.83;;;8.80;;
5217;SDS011;26539;51.064;6.346;2024-02-15T07:11:25;47.67;;;21.23;;
5217;SDS011;26539;51.064;6.346;2024-02-15T07:13:51;41.50;;;20.73;;
5217;SDS011;26539;51.064;6.346;2024-02-15T07:16:19;15.70;;;9.13;;
5217;SDS011;26539;51.064;6.346;2024-02-15T07:18:45;22.77;;;8.40;;
5217;SDS011;26539;51.064;6.346;2024-02-15T07:21:11;9.57;;;4.77;;
5217;SDS011;26539;51.064;6.346;2024-02-15T07:23:39;11.20;;;7.00;;
5217;SDS011;26539;51.064;6.346;2024-02-15T07:26:06;20.03;;;6.53;;
5217;SDS011;26539;51.064;6.346;2024-02-15T07:28:33;10.80;;;4.33;;
5217;SDS011;26539;51.064;6.346;2024-02-15T07:30:58;7.77;;;4.90;;
5217;SDS011;26539;51.064;6.346;2024-02-15T07:33:27;11.80;;;4.40;;
5217;SDS011;26539;51.064;6.346;2024-02-15T07:35:54;13.90;;;4.37;;
5217;SDS011;26539;51.064;6.346;2024-02-15T07:38:21;11.70;;;5.03;;
5217;SDS011;26539;51.064;6.346;2024-02-15T07:40:47;14.33;;;5.20;;
5217;SDS011;26539;51.064;6.346;2024-02-15T07:43:13;13.93;;;4.60;;
5217;SDS011;26539;51.064;6.346;2024-02-15T07:45:39;5.43;;;4.20;;
5217;SDS011;26539;51.064;6.346;2024-02-15T07:48:05;7.53;;;4.70;;
5217;SDS011;26539;51.064;6.346;2024-02-15T07:50:31;8.00;;;4.57;;
5217;SDS011;26539;51.064;6.346;2024-02-15T07:52:57;13.80;;;5.33;;
5217;SDS011;26539;51.064;6.346;2024-02-15T07:55:22;11.67;;;4.67;;
5217;SDS011;26539;51.064;6.346;2024-02-15T07:57:49;9.60;;;4.70;;
5217;SDS011;26539;51.064;6.346;2024-02-15T08:00:18;8.10;;;5.03;;
5217;SDS011;26539;51.064;6.346;2024-02-15T08:02:44;10.30;;;4.27;;
5217;SDS011;26539;51.064;6.346;2024-02-15T08:05:10;12.37;;;4.47;;
5217;SDS011;26539;51.064;6.346;2024-02-15T08:07:44;10.40;;;3.70;;
5217;SDS011;26539;51.064;6.346;2024-02-15T08:10:13;8.57;;;4.13;;
5217;SDS011;26539;51.064;6.346;2024-02-15T08:12:39;7.13;;;3.73;;
5217;SDS011;26539;51.064;6.346;2024-02-15T08:15:06;8.50;;;4.80;;
5217;SDS011;26539;51.064;6.346;2024-02-15T08:17:37;8.73;;;4.20;;
5217;SDS011;26539;51.064;6.346;2024-02-15T08:20:15;8.17;;;4.17;;
5217;SDS011;26539;51.064;6.346;2024-02-15T08:22:46;15.17;;;5.40;;
5217;SDS011;26539;51.064;6.346;2024-02-15T08:25:19;8.93;;;4.37;;
5217;SDS011;26539;51.064;6.346;2024-02-15T08:27:47;10.17;;;3.90;;
5217;SDS011;26539;51.064;6.346;2024-02-15T08:30:14;10.83;;;4.00;;
5217;SDS011;26539;51.064;6.346;2024-02-15T08:32:41;8.57;;;3.80;;
5217;SDS011;26539;51.064;6.346;2024-02-15T08:35:08;12.93;;;3.67;;
5217;SDS011;26539;51.064;6.346;2024-02-15T08:37:35;7.57;;;4.07;;
5217;SDS011;26539;51.064;6.346;2024-02-15T08:40:02;10.20;;;4.10;;
5217;SDS011;26539;51.064;6.346;2024-02-15T08:42:29;7.27;;;2.90;;
5217;SDS011;26539;51.064;6.346;2024-02-15T08:44:54;6.20;;;2.80;;
5217;SDS011;26539;51.064;6.346;2024-02-15T08:47:20;5.30;;;2.93;;
5217;SDS011;26539;51.064;6.346;2024-02-15T08:49:46;9.17;;;3.23;;
5217;SDS011;26539;51.064;6.346;2024-02-15T08:52:11;10.67;;;3.73;;
5217;SDS011;26539;51.064;6.346;2024-02-15T08:54:37;9.83;;;3.17;;
5217;SDS011;26539;51.064;6.346;2024-02-15T08:57:06;8.13;;;3.17;;
5217;SDS011;26539;51.064;6.346;2024-02-15T08:59:32;13.93;;;3.50;;
5217;SDS011;26539;51.064;6.346;2024-02-15T09:01:58;7.80;;;3.07;;
5217;SDS011;26539;51.064;6.346;2024-02-15T09:04:25;15.27;;;4.00;;
5217;SDS011;26539;51.064;6.346;2024-02-15T09:06:51;7.33;;;3.00;;
5217;SDS011;26539;51.064;6.346;2024-02-15T09:09:17;11.17;;;4.27;;
5217;SDS011;26539;51.064;6.346;2024-02-15T09:11:42;11.67;;;4.83;;
5217;SDS011;26539;51.064;6.346;2024-02-15T09:14:08;18.00;;;4.27;;
5217;SDS011;26539;51.064;6.346;2024-02-15T09:16:36;6.30;;;2.97;;
5217;SDS011;26539;51.064;6.346;2024-02-15T09:19:02;9.83;;;2.70;;
5217;SDS011;26539;51.064;6.346;2024-02-15T09:21:28;13.83;;;3.90;;
5217;SDS011;26539;51.064;6.346;2024-02-15T09:23:54;6.17;;;2.43;;
5217;SDS011;26539;51.064;6.346;2024-02-15T09:26:21;4.27;;;2.43;;
5217;SDS011;26539;51.064;6.346;2024-02-15T09:28:47;3.83;;;2.90;;
5217;SDS011;26539;51.064;6.346;2024-02-15T09:31:12;3.17;;;2.37;;
5217;SDS011;26539;51.064;6.346;2024-02-15T09:33:43;3.53;;;2.10;;
5217;SDS011;26539;51.064;6.346;2024-02-15T09:36:08;10.50;;;3.30;;
5217;SDS011;26539;51.064;6.346;2024-02-15T09:38:34;3.97;;;2.83;;
5217;SDS011;26539;51.064;6.346;2024-02-15T09:41:00;5.50;;;2.60;;
5217;SDS011;26539;51.064;6.346;2024-02-15T09:43:27;5.20;;;2.50;;
5217;SDS011;26539;51.064;6.346;2024-02-15T09:45:54;4.70;;;2.10;;
5217;SDS011;26539;51.064;6.346;2024-02-15T09:48:20;3.33;;;2.10;;
5217;SDS011;26539;51.064;6.346;2024-02-15T09:50:50;5.80;;;2.80;;
5217;SDS011;26539;51.064;6.346;2024-02-15T09:53:21;4.23;;;2.53;;
5217;SDS011;26539;51.064;6.346;2024-02-15T09:55:50;5.20;;;2.40;;
5217;SDS011;26539;51.064;6.346;2024-02-15T09:58:19;3.00;;;1.63;;
5217;SDS011;26539;51.064;6.346;2024-02-15T10:00:44;5.57;;;2.20;;
5217;SDS011;26539;51.064;6.346;2024-02-15T10:03:11;4.63;;;1.97;;
5217;SDS011;26539;51.064;6.346;2024-02-15T10:05:41;3.63;;;2.03;;
5217;SDS011;26539;51.064;6.346;2024-02-15T10:08:07;5.40;;;2.07;;
5217;SDS011;26539;51.064;6.346;2024-02-15T10:10:32;5.93;;;1.90;;
5217;SDS011;26539;51.064;6.346;2024-02-15T10:13:00;3.40;;;1.90;;
5217;SDS011;26539;51.064;6.346;2024-02-15T10:18:02;1.93;;;1.53;;
5217;SDS011;26539;51.064;6.346;2024-02-15T10:20:33;7.70;;;3.90;;
5217;SDS011;26539;51.064;6.346;2024-02-15T10:25:29;6.43;;;3.53;;
5217;SDS011;26539;51.064;6.346;2024-02-15T10:28:04;7.70;;;2.90;;
5217;SDS011;26539;51.064;6.346;2024-02-15T10:30:36;10.03;;;4.10;;
5217;SDS011;26539;51.064;6.346;2024-02-15T10:33:03;6.60;;;3.20;;
5217;SDS011;26539;51.064;6.346;2024-02-15T10:35:29;5.77;;;2.60;;
5217;SDS011;26539;51.064;6.346;2024-02-15T10:38:08;12.70;;;3.90;;
5217;SDS011;26539;51.064;6.346;2024-02-15T10:40:35;4.20;;;2.10;;
5217;SDS011;26539;51.064;6.346;2024-02-15T10:43:05;2.43;;;1.53;;
5217;SDS011;26539;51.064;6.346;2024-02-15T10:45:31;3.17;;;1.70;;
5217;SDS011;26539;51.064;6.346;2024-02-15T10:47:58;9.30;;;2.30;;
5217;SDS011;26539;51.064;6.346;2024-02-15T10:50:24;6.93;;;1.40;;
5217;SDS011;26539;51.064;6.346;2024-02-15T10:52:57;2.90;;;1.53;;
5217;SDS011;26539;51.064;6.346;2024-02-15T10:55:46;3.00;;;1.73;;
5217;SDS011;26539;51.064;6.346;2024-02-15T10:58:16;5.20;;;2.43;;
5217;SDS011;26539;51.064;6.346;2024-02-15T11:00:44;3.33;;;1.47;;
5217;SDS011;26539;51.064;6.346;2024-02-15T11:03:14;7.10;;;1.30;;
5217;SDS011;26539;51.064;6.346;2024-02-15T11:05:50;8.60;;;2.93;;
5217;SDS011;26539;51.064;6.346;2024-02-15T11:08:17;4.03;;;1.80;;
5217;SDS011;26539;51.064;6.346;2024-02-15T11:10:43;2.67;;;1.10;;
5217;SDS011;26539;51.064;6.346;2024-02-15T11:13:09;2.70;;;1.30;;
5217;SDS011;26539;51.064;6.346;2024-02-15T11:18:06;3.63;;;1.30;;
5217;SDS011;26539;51.064;6.346;2024-02-15T11:22:58;6.63;;;1.53;;
5217;SDS011;26539;51.064;6.346;2024-02-15T11:25:32;3.83;;;1.20;;
5217;SDS011;26539;51.064;6.346;2024-02-15T11:30:47;2.20;;;1.10;;
5217;SDS011;26539;51.064;6.346;2024-02-15T11:33:25;3.53;;;1.97;;
5217;SDS011;26539;51.064;6.346;2024-02-15T11:38:36;3.87;;;1.47;;
5217;SDS011;26539;51.064;6.346;2024-02-15T11:41:06;2.97;;;1.60;;
5217;SDS011;26539;51.064;6.346;2024-02-15T11:46:13;2.53;;;1.07;;
5217;SDS011;26539;51.064;6.346;2024-02-15T11:48:40;3.60;;;1.40;;
5217;SDS011;26539;51.064;6.346;2024-02-15T11:51:09;5.20;;;1.67;;
5217;SDS011;26539;51.064;6.346;2024-02-15T11:53:36;4.53;;;1.50;;
5217;SDS011;26539;51.064;6.346;2024-02-15T11:56:02;3.47;;;1.23;;
5217;SDS011;26539;51.064;6.346;2024-02-15T11:58:34;3.40;;;1.10;;
5217;SDS011;26539;51.064;6.346;2024-02-15T12:01:17;1.70;;;1.07;;
5217;SDS011;26539;51.064;6.346;2024-02-15T12:04:01;8.33;;;1.10;;
5217;SDS011;26539;51.064;6.346;2024-02-15T12:06:46;2.73;;;1.00;;
5217;SDS011;26539;51.064;6.346;2024-02-15T12:09:30;1.83;;;1.03;;
5217;SDS011;26539;51.064;6.346;2024-02-15T12:12:14;1.60;;;0.90;;
5217;SDS011;26539;51.064;6.346;2024-02-15T12:14:59;2.13;;;1.00;;
5217;SDS011;26539;51.064;6.346;2024-02-15T12:17:43;3.17;;;1.37;;
5217;SDS011;26539;51.064;6.346;2024-02-15T12:20:27;1.90;;;1.13;;
5217;SDS011;26539;51.064;6.346;2024-02-15T12:22:57;2.73;;;1.00;;
5217;SDS011;26539;51.064;6.346;2024-02-15T12:25:25;5.17;;;1.83;;
5217;SDS011;26539;51.064;6.346;2024-02-15T12:27:52;1.80;;;1.10;;
5217;SDS011;26539;51.064;6.346;2024-02-15T12:30:19;3.40;;;1.00;;
5217;SDS011;26539;51.064;6.346;2024-02-15T12:32:46;1.50;;;1.00;;
5217;SDS011;26539;51.064;6.346;2024-02-15T12:35:16;2.13;;;1.00;;
5217;SDS011;26539;51.064;6.346;2024-02-15T12:37:45;3.60;;;1.00;;
5217;SDS011;26539;51.064;6.346;2024-02-15T12:40:11;3.40;;;1.23;;
5217;SDS011;26539;51.064;6.346;2024-02-15T12:42:43;3.40;;;1.60;;
5217;SDS011;26539;51.064;6.346;2024-02-15T12:45:24;5.60;;;1.63;;
5217;SDS011;26539;51.064;6.346;2024-02-15T12:47:55;3.40;;;1.37;;
5217;SDS011;26539;51.064;6.346;2024-02-15T12:50:30;3.20;;;1.70;;
5217;SDS011;26539;51.064;6.346;2024-02-15T12:52:56;2.90;;;1.10;;
5217;SDS011;26539;51.064;6.346;2024-02-15T12:55:28;4.83;;;1.63;;
5217;SDS011;26539;51.064;6.346;2024-02-15T12:57:59;4.60;;;2.30;;
5217;SDS011;26539;51.064;6.346;2024-02-15T13:00:28;2.30;;;1.27;;
5217;SDS011;26539;51.064;6.346;2024-02-15T13:02:56;3.30;;;2.10;;
5217;SDS011;26539;51.064;6.346;2024-02-15T13:05:24;3.00;;;1.50;;
5217;SDS011;26539;51.064;6.346;2024-02-15T13:07:51;3.90;;;2.40;;
5217;SDS011;26539;51.064;6.346;2024-02-15T13:10:29;11.90;;;4.60;;
5217;SDS011;26539;51.064;6.346;2024-02-15T13:12:56;6.17;;;4.10;;
5217;SDS011;26539;51.064;6.346;2024-02-15T13:15:22;11.53;;;7.97;;
5217;SDS011;26539;51.064;6.346;2024-02-15T13:17:53;11.13;;;6.75;;
5217;SDS011;26539;51.064;6.346;2024-02-15T13:20:20;12.17;;;9.37;;
5217;SDS011;26539;51.064;6.346;2024-02-15T13:22:56;7.00;;;3.40;;
5217;SDS011;26539;51.064;6.346;2024-02-15T13:25:25;26.13;;;13.60;;
5217;SDS011;26539;51.064;6.346;2024-02-15T13:27:51;9.37;;;4.47;;
5217;SDS011;26539;51.064;6.346;2024-02-15T13:30:18;3.90;;;1.80;;
5217;SDS011;26539;51.064;6.346;2024-02-15T13:32:49;13.20;;;6.87;;
5217;SDS011;26539;51.064;6.346;2024-02-15T13:35:17;14.50;;;7.73;;
5217;SDS011;26539;51.064;6.346;2024-02-15T13:37:48;8.67;;;4.57;;
5217;SDS011;26539;51.064;6.346;2024-02-15T13:40:14;13.00;;;7.93;;
5217;SDS011;26539;51.064;6.346;2024-02-15T13:42:44;9.07;;;5.67;;
5217;SDS011;26539;51.064;6.346;2024-02-15T13:45:15;7.23;;;1.93;;
5217;SDS011;26539;51.064;6.346;2024-02-15T13:47:43;3.33;;;2.00;;
5217;SDS011;26539;51.064;6.346;2024-02-15T13:50:11;7.20;;;3.87;;
5217;SDS011;26539;51.064;6.346;2024-02-15T13:52:39;13.23;;;5.47;;
5217;SDS011;26539;51.064;6.346;2024-02-15T13:55:11;12.73;;;4.70;;
5217;SDS011;26539;51.064;6.346;2024-02-15T13:57:39;8.23;;;5.20;;
5217;SDS011;26539;51.064;6.346;2024-02-15T14:00:17;10.90;;;7.10;;
5217;SDS011;26539;51.064;6.346;2024-02-15T14:02:49;5.65;;;4.13;;
5217;SDS011;26539;51.064;6.346;2024-02-15T14:05:16;5.57;;;3.00;;
5217;SDS011;26539;51.064;6.346;2024-02-15T14:07:49;14.63;;;3.37;;
5217;SDS011;26539;51.064;6.346;2024-02-15T14:10:17;7.47;;;3.10;;
5217;SDS011;26539;51.064;6.346;2024-02-15T14:12:49;8.07;;;5.40;;
5217;SDS011;26539;51.064;6.346;2024-02-15T14:15:17;11.33;;;1.60;;
5217;SDS011;26539;51.064;6.346;2024-02-15T14:17:44;3.63;;;1.50;;
5217;SDS011;26539;51.064;6.346;2024-02-15T14:20:10;5.50;;;1.30;;
5217;SDS011;26539;51.064;6.346;2024-02-15T14:22:40;7.23;;;1.83;;
5217;SDS011;26539;51.064;6.346;2024-02-15T14:25:09;2.70;;;1.30;;
5217;SDS011;26539;51.064;6.346;2024-02-15T14:27:37;5.13;;;1.60;;
5217;SDS011;26539;51.064;6.346;2024-02-15T14:30:04;3.57;;;1.30;;
5217;SDS011;26539;51.064;6.346;2024-02-15T14:32:49;2.33;;;1.07;;
5217;SDS011;26539;51.064;6.346;2024-02-15T14:35:33;10.83;;;1.50;;
5217;SDS011;26539;51.064;6.346;2024-02-15T14:38:03;3.23;;;1.63;;
5217;SDS011;26539;51.064;6.346;2024-02-15T14:40:36;2.50;;;1.10;;
5217;SDS011;26539;51.064;6.346;2024-02-15T14:43:03;5.20;;;1.90;;
5217;SDS011;26539;51.064;6.346;2024-02-15T14:45:29;5.73;;;1.50;;
5217;SDS011;26539;51.064;6.346;2024-02-15T14:47:59;6.03;;;2.20;;
5217;SDS011;26539;51.064;6.346;2024-02-15T14:50:25;5.73;;;1.50;;
5217;SDS011;26539;51.064;6.346;2024-02-15T14:52:51;3.83;;;1.00;;
5217;SDS011;26539;51.064;6.346;2024-02-15T14:55:18;4.43;;;1.70;;
5217;SDS011;26539;51.064;6.346;2024-02-15T14:57:44;2.40;;;1.30;;
5217;SDS011;26539;51.064;6.346;2024-02-15T15:00:11;1.93;;;1.37;;
5217;SDS011;26539;51.064;6.346;2024-02-15T15:02:43;5.50;;;1.67;;
5217;SDS011;26539;51.064;6.346;2024-02-15T15:05:15;2.80;;;1.57;;
5217;SDS011;26539;51.064;6.346;2024-02-15T15:07:59;4.63;;;1.37;;
5217;SDS011;26539;51.064;6.346;2024-02-15T15:10:45;4.47;;;1.20;;
5217;SDS011;26539;51.064;6.346;2024-02-15T15:13:30;3.37;;;1.43;;
5217;SDS011;26539;51.064;6.346;2024-02-15T15:15:56;2.37;;;1.10;;
5217;SDS011;26539;51.064;6.346;2024-02-15T15:18:22;3.77;;;1.20;;
5217;SDS011;26539;51.064;6.346;2024-02-15T15:20:48;8.63;;;1.57;;